»·PEaware :: N56694 KSBA-KSBA

N56694 :: KSBA-KSBA

FLIGHT INFORMATION

Flight Status: Arrived
Operator: Privately registered:
United States
More flights under this callsign
Pilot: Michael M. (12217)
Aircraft: CESSNA 172 SKYHAWK
(C172)
More flights by this aircraft type
Origin: KSBA Santa Barbara Mun
United States
Destination: KSBA Santa Barbara Mun
United States
More flights between these airports :: More routes between these airports
Route: +LOCAL VFR
File this flight plan on PilotEdge
Remarks:
Altitude:
(Current/Filed)
0ft
Speed:
(Current/Filed)
0kts
Departed: 20-Aug-16 06:03 PM
Arrived: 20-Aug-16 07:11 PM
Distance/Time
Traveled:
2306nm/1:07
Distance/Time
To Go:
Arrived

Flight Plot

Page will automatically refresh every two minutes.

Flight plan parsing failed; only flown route is shown


Map Options




Map Legend


Flown Route
Filed Route
Departure Airport
Arrival Airport
Navaid (VOR, NDB)
Fix

Horizontal Profiles

Position Reports

Time Latitude Longitude Heading Altitude Ground
Speed
20-Aug-16 17:53 34.432532 -119.834828 16 13ft 1kts
20-Aug-16 17:53 34.432421 -119.834948 164 13ft 6kts
20-Aug-16 17:55 34.431788 -119.835374 235 13ft 2kts
20-Aug-16 17:56 34.431308 -119.836944 251 12ft 16kts
20-Aug-16 17:56 34.430679 -119.839289 271 11ft 4kts
20-Aug-16 17:58 34.430638 -119.839688 219 11ft 0kts
20-Aug-16 17:58 34.430638 -119.839688 219 11ft 0kts
20-Aug-16 17:59 34.430638 -119.839688 219 11ft 0kts
20-Aug-16 18:00 34.429850 -119.840210 160 10ft 12kts
20-Aug-16 18:01 34.416491 -119.833761 157 531ft 76kts
20-Aug-16 18:02 34.411815 -119.817832 39 954ft 89kts
20-Aug-16 18:03 34.426467 -119.819849 344 1040ft 81kts
20-Aug-16 18:04 34.440057 -119.822232 330 829ft 75kts
20-Aug-16 18:05 34.441986 -119.833949 211 468ft 49kts
20-Aug-16 18:06 34.438453 -119.837811 218 299ft 51kts
20-Aug-16 18:07 34.428414 -119.839626 178 10ft 44kts
20-Aug-16 18:08 34.414158 -119.833940 160 413ft 83kts
20-Aug-16 18:09 34.411206 -119.817156 15 1006ft 81kts
20-Aug-16 18:10 34.426177 -119.820336 342 1019ft 75kts
20-Aug-16 18:11 34.440088 -119.822230 337 892ft 71kts
20-Aug-16 18:12 34.441813 -119.832742 220 478ft 58kts
20-Aug-16 18:13 34.432474 -119.840641 186 137ft 67kts
20-Aug-16 18:14 34.421000 -119.837087 165 136ft 61kts
20-Aug-16 18:15 34.409186 -119.828831 153 660ft 63kts
20-Aug-16 18:16 34.402380 -119.819630 96 982ft 80kts
20-Aug-16 18:17 34.406904 -119.802325 18 1064ft 59kts
20-Aug-16 18:18 34.415670 -119.807030 306 834ft 56kts
20-Aug-16 18:19 34.422325 -119.817324 297 662ft 64kts
20-Aug-16 18:21 34.427002 -119.826491 292 582ft 62kts
20-Aug-16 18:22 34.436028 -119.828873 355 504ft 71kts
20-Aug-16 18:23 34.444600 -119.835291 264 524ft 60kts
20-Aug-16 18:24 34.435582 -119.841375 177 260ft 73kts
20-Aug-16 18:25 34.424602 -119.838598 170 9ft 51kts
20-Aug-16 18:26 34.406840 -119.831545 155 541ft 95kts
20-Aug-16 18:27 34.387426 -119.823946 238 1230ft 84kts
20-Aug-16 18:28 34.396258 -119.841464 308 1231ft 84kts
20-Aug-16 18:29 34.405891 -119.856571 298 1310ft 69kts
20-Aug-16 18:30 34.410733 -119.866618 288 1357ft 69kts
20-Aug-16 18:31 34.415891 -119.880604 288 1391ft 71kts
20-Aug-16 18:32 34.422284 -119.896907 292 1444ft 72kts
20-Aug-16 18:33 34.428477 -119.913516 290 1496ft 72kts
20-Aug-16 18:34 34.433932 -119.930485 283 1498ft 72kts
20-Aug-16 18:35 34.439271 -119.950548 288 1360ft 74kts
20-Aug-16 18:36 34.443859 -119.969142 278 1241ft 73kts
20-Aug-16 18:37 34.448739 -119.988284 276 1918ft 74kts
20-Aug-16 18:38 34.437314 -120.001875 247 2475ft 85kts
20-Aug-16 18:39 34.442898 -120.022192 284 2624ft 71kts
20-Aug-16 18:40 34.448018 -120.040123 289 3082ft 62kts
20-Aug-16 18:41 34.452850 -120.057745 277 3377ft 71kts
20-Aug-16 18:42 34.455354 -120.074656 292 3466ft 86kts
20-Aug-16 18:43 34.460323 -120.094946 271 3352ft 92kts
20-Aug-16 18:44 34.470006 -120.105506 353 3746ft 77kts
20-Aug-16 18:45 34.486864 -120.102863 22 4395ft 83kts
20-Aug-16 18:46 34.502342 -120.094869 2 5038ft 79kts
20-Aug-16 18:47 34.517075 -120.098454 357 5472ft 85kts
20-Aug-16 18:48 34.525110 -120.094627 25 5711ft 90kts
20-Aug-16 18:49 34.547707 -120.086608 343 6411ft 86kts
20-Aug-16 18:50 34.565250 -120.092375 5 6793ft 91kts
20-Aug-16 18:51 34.573521 -120.075150 118 6592ft 116kts
20-Aug-16 18:52 34.560681 -120.056596 136 6143ft 102kts
20-Aug-16 18:53 34.541756 -120.043030 168 5353ft 103kts
20-Aug-16 18:54 34.519121 -120.040130 182 5246ft 105kts
20-Aug-16 18:55 34.497372 -120.042161 191 5347ft 106kts
20-Aug-16 18:56 34.473156 -120.038120 152 5159ft 114kts
20-Aug-16 18:57 34.461011 -120.022474 112 4965ft 116kts
20-Aug-16 18:58 34.454640 -119.997256 116 4759ft 116kts
20-Aug-16 18:59 34.440508 -119.976352 143 4232ft 113kts
20-Aug-16 18:59 34.432377 -119.957297 85 3746ft 106kts
20-Aug-16 19:01 34.436056 -119.950366 83 2506ft 113kts
20-Aug-16 19:01 34.438903 -119.930463 92 2096ft 107kts
20-Aug-16 19:02 34.434575 -119.908843 97 1954ft 99kts
20-Aug-16 19:03 34.435957 -119.888279 87 1658ft 99kts
20-Aug-16 19:04 34.436660 -119.867900 86 1411ft 101kts
20-Aug-16 19:05 34.437063 -119.844224 91 1015ft 98kts
20-Aug-16 19:06 34.436625 -119.825226 81 726ft 88kts
20-Aug-16 19:07 34.430204 -119.820107 216 422ft 57kts
20-Aug-16 19:08 34.427636 -119.830450 268 111ft 50kts
20-Aug-16 19:09 34.427652 -119.838606 300 10ft 12kts
20-Aug-16 19:10 34.428278 -119.839038 345 10ft 0kts
20-Aug-16 19:11 34.429150 -119.839224 344 9ft 8kts
20-Aug-16 19:12 34.430625 -119.838986 4 11ft 10kts
20-Aug-16 19:13 34.431949 -119.836109 351 13ft 17kts
20-Aug-16 19:14 34.432501 -119.835857 84 13ft 0kts
20-Aug-16 19:15 34.432501 -119.835857 84 13ft 0kts
20-Aug-16 19:16 34.432501 -119.835857 84 13ft 0kts
20-Aug-16 19:17 34.432501 -119.835857 84 13ft 0kts
20-Aug-16 19:18 34.432501 -119.835857 84 13ft 0kts
20-Aug-16 19:19 42.187723 -71.178710 64 46ft 0kts
20-Aug-16 19:20 42.187723 -71.178710 64 46ft 0kts
20-Aug-16 19:21 42.187723 -71.178710 64 46ft 0kts
20-Aug-16 19:22 42.187723 -71.178710 64 46ft 0kts

Navigation Log

Ident Type
Flight plan parsing failed, navigation log unavailable